Watson, Oklahoma
Current Conditions -  °F | °C
As of 4:55 PM on Thursday 23 Oct 2014 (Local Time) from KMEZ Reporting Station
Scattered Clouds Scattered Clouds  
Wind Chill: 70°   Ceiling: Unl
Heat Index: 70°   Visibility: 10mi
Dew Point: 52°   Wind: 0mph
Humidity: 53%   Direction: NA
Pressure: 30.12"   Gusts: NA
Location:  34.44°N, 94.56°W
Report Text: KMEZ 232155Z AUTO 00000KT 10SM SCT120 21/11 A3012 RMK AO2
Loading
Personal Weather Stations






























Interactive Weather Map
Tropical Storm Tracking
New forecast layout! Learn more

10-Day Weather Forecast

Advertisements
Track Severe Weather on mobile